Time;durP1;ratioP1;P1;durP2;ratioP2;P2;SDS_P1;SDS_P2;PMS_P1;PMS_P2;Temp;Humidity;BMP_temperature;BMP_pressure;BME280_temperature;BME280_humidity;BME280_pressure;Samples;Min_cycle;Max_cycle;Signal;HPM_P1;HPM_P2
2023/03/24 00:01:19;;;;;;;18.08;7.20;;;11.20;99.90;;;;;;5036954;28;20496;-82
2023/03/24 00:04:05;;;;;;;22.52;8.68;;;11.20;99.90;;;;;;5070337;28;20065;-81
2023/03/24 00:06:52;;;;;;;15.02;6.75;;;11.20;99.90;;;;;;5054712;28;20055;-80
2023/03/24 00:09:40;;;;;;;21.60;7.28;;;11.20;99.90;;;;;;5055159;28;20049;-86
2023/03/24 00:12:27;;;;;;;18.13;7.45;;;11.30;99.90;;;;;;5070756;28;20053;-82
2023/03/24 00:15:19;;;;;;;17.63;7.55;;;11.30;99.90;;;;;;5059537;28;20052;-80
2023/03/24 00:18:09;;;;;;;15.80;7.00;;;11.20;99.90;;;;;;5058033;28;20084;-85
2023/03/24 00:20:57;;;;;;;19.67;7.20;;;11.20;99.90;;;;;;5072372;28;20071;-82
2023/03/24 00:23:46;;;;;;;20.55;6.50;;;11.20;99.90;;;;;;5073671;28;20052;-84
2023/03/24 00:26:36;;;;;;;16.90;6.50;;;11.30;99.90;;;;;;5057831;28;20055;-81
2023/03/24 00:29:23;;;;;;;15.43;7.03;;;11.30;99.90;;;;;;5074203;28;20045;-82
2023/03/24 00:32:09;;;;;;;14.20;5.93;;;11.30;99.90;;;;;;5072029;28;20143;-81
2023/03/24 00:34:55;;;;;;;13.52;6.22;;;11.20;99.90;;;;;;5072454;28;20464;-84
2023/03/24 00:37:43;;;;;;;12.85;6.10;;;11.20;99.90;;;;;;5072282;28;20381;-81
2023/03/24 00:40:29;;;;;;;19.38;8.23;;;11.20;99.90;;;;;;5057261;28;20492;-82
2023/03/24 00:43:16;;;;;;;17.05;5.90;;;11.20;99.90;;;;;;5072468;28;20159;-84
2023/03/24 00:46:27;;;;;;;16.27;5.93;;;11.20;99.90;;;;;;5072692;28;20412;-83
2023/03/24 00:49:14;;;;;;;17.20;6.30;;;11.20;99.90;;;;;;5073130;28;20051;-81
2023/03/24 00:52:00;;;;;;;14.80;6.25;;;11.20;99.90;;;;;;5059101;28;20044;-86
2023/03/24 00:54:48;;;;;;;15.95;6.70;;;11.20;99.90;;;;;;5074165;28;20048;-85
2023/03/24 00:57:34;;;;;;;19.05;6.40;;;11.20;99.90;;;;;;5073075;28;20566;-81
2023/03/24 01:00:22;;;;;;;15.90;5.57;;;11.20;99.90;;;;;;5053715;28;20052;-84
2023/03/24 01:03:08;;;;;;;13.18;5.75;;;11.20;99.90;;;;;;5053904;28;20070;-83
2023/03/24 01:06:00;;;;;;;13.90;6.25;;;11.20;99.90;;;;;;5071884;28;20472;-80
2023/03/24 01:08:48;;;;;;;11.05;5.47;;;11.20;99.90;;;;;;5054328;28;20056;-80
2023/03/24 01:11:37;;;;;;;17.50;6.63;;;11.20;99.90;;;;;;5055097;28;20053;-83
2023/03/24 01:14:24;;;;;;;12.68;5.95;;;11.10;99.90;;;;;;5071648;28;20052;-84
2023/03/24 01:17:11;;;;;;;12.82;6.55;;;11.10;99.90;;;;;;5072223;28;20048;-85
2023/03/24 01:19:57;;;;;;;13.90;6.35;;;11.10;99.90;;;;;;5057348;28;20049;-86
2023/03/24 01:22:43;;;;;;;16.40;6.70;;;11.10;99.90;;;;;;5040694;28;20045;-85
2023/03/24 01:25:30;;;;;;;10.13;5.35;;;11.10;99.90;;;;;;5073820;28;20044;-86
2023/03/24 01:28:23;;;;;;;14.13;6.07;;;11.00;99.90;;;;;;5071884;28;20177;-81
2023/03/24 01:31:10;;;;;;;12.93;5.30;;;11.10;99.90;;;;;;5071407;28;20048;-85
2023/03/24 01:33:56;;;;;;;9.70;5.43;;;11.10;99.90;;;;;;5071229;28;20059;-83
2023/03/24 01:36:42;;;;;;;11.20;5.00;;;11.10;99.90;;;;;;5071278;28;20055;-80
2023/03/24 01:39:29;;;;;;;12.02;5.30;;;11.10;99.90;;;;;;5071139;28;20052;-80
2023/03/24 01:42:21;;;;;;;10.57;5.05;;;11.20;99.90;;;;;;5071272;28;20048;-82
2023/03/24 01:45:41;;;;;;;14.07;6.28;;;11.10;99.90;;;;;;5071415;28;20052;-79
2023/03/24 01:48:50;;;;;;;7.90;5.20;;;11.10;99.90;;;;;;5071054;28;20048;-80
2023/03/24 01:51:40;;;;;;;10.95;5.03;;;11.20;99.90;;;;;;5050277;28;20694;-80
2023/03/24 01:54:35;;;;;;;12.45;4.93;;;11.20;99.90;;;;;;5053781;28;20056;-85
2023/03/24 01:57:35;;;;;;;9.23;5.05;;;11.20;99.90;;;;;;5054566;28;20558;-85
2023/03/24 02:00:22;;;;;;;9.63;4.63;;;11.20;99.90;;;;;;5072470;28;20083;-81
2023/03/24 02:03:19;;;;;;;8.93;4.50;;;11.20;99.90;;;;;;5070908;28;20059;-81
2023/03/24 02:06:07;;;;;;;13.55;5.53;;;11.30;99.90;;;;;;5071728;28;20048;-80
2023/03/24 02:08:56;;;;;;;10.13;4.57;;;11.30;99.90;;;;;;5069571;28;20393;-79
2023/03/24 02:11:43;;;;;;;12.63;4.72;;;11.30;99.90;;;;;;5071992;28;20045;-79
2023/03/24 02:14:29;;;;;;;9.00;4.85;;;11.20;99.90;;;;;;5070957;28;20052;-80
2023/03/24 02:17:42;;;;;;;14.07;7.13;;;11.20;99.90;;;;;;5053205;28;20056;-82
2023/03/24 02:21:05;;;;;;;8.18;5.03;;;11.20;99.90;;;;;;5070705;28;20061;-85
2023/03/24 02:24:13;;;;;;;10.27;5.03;;;11.20;99.90;;;;;;5072846;28;20059;-81
2023/03/24 02:27:28;;;;;;;10.95;5.28;;;11.30;99.90;;;;;;5069886;28;20489;-81
2023/03/24 02:30:17;;;;;;;15.53;5.47;;;11.30;99.90;;;;;;5057165;28;20063;-80
2023/03/24 02:33:48;;;;;;;12.45;5.18;;;11.30;99.90;;;;;;5069528;28;20287;-81
2023/03/24 02:37:03;;;;;;;12.10;4.88;;;11.30;99.90;;;;;;5047503;28;20058;-81
2023/03/24 02:40:34;;;;;;;9.50;5.17;;;11.30;99.90;;;;;;5071289;28;20514;-80
2023/03/24 02:43:39;;;;;;;17.65;5.25;;;11.30;99.90;;;;;;5032427;28;20044;-82
2023/03/24 02:46:28;;;;;;;12.60;4.60;;;11.30;99.90;;;;;;5071864;28;20083;-81
2023/03/24 02:49:27;;;;;;;9.07;4.82;;;11.40;99.90;;;;;;5055434;28;20049;-84
2023/03/24 02:52:23;;;;;;;12.02;5.90;;;11.30;99.90;;;;;;5068962;28;20055;-84
2023/03/24 02:55:28;;;;;;;11.93;5.95;;;11.30;99.90;;;;;;5073387;28;20059;-82
2023/03/24 02:59:12;;;;;;;8.70;4.97;;;11.30;99.90;;;;;;5069752;28;20129;-80
2023/03/24 03:02:28;;;;;;;10.55;5.32;;;11.30;99.90;;;;;;4989315;28;20069;-85
2023/03/24 03:05:22;;;;;;;12.27;3.60;;;11.30;99.90;;;;;;5054074;28;20115;-81
2023/03/24 03:08:11;;;;;;;11.00;4.38;;;11.30;99.90;;;;;;5032399;28;20084;-82
2023/03/24 03:11:00;;;;;;;9.23;3.58;;;11.20;99.90;;;;;;5050428;28;20139;-82
2023/03/24 03:14:01;;;;;;;6.25;4.10;;;11.00;99.90;;;;;;5050463;28;20131;-81
2023/03/24 03:16:58;;;;;;;9.27;3.67;;;10.90;99.90;;;;;;5049301;28;20053;-79
2023/03/24 03:19:54;;;;;;;15.90;4.03;;;10.80;99.90;;;;;;5053081;28;20413;-81
2023/03/24 03:22:52;;;;;;;15.60;4.93;;;10.70;99.90;;;;;;5035783;28;20055;-80
2023/03/24 03:25:49;;;;;;;13.85;3.38;;;10.60;99.90;;;;;;5035462;28;20061;-87
2023/03/24 03:28:40;;;;;;;11.63;3.42;;;10.60;99.90;;;;;;5053433;28;20049;-81
2023/03/24 03:31:36;;;;;;;9.25;2.95;;;10.50;99.90;;;;;;5032399;28;20107;-81
2023/03/24 03:34:34;;;;;;;11.30;2.65;;;10.50;99.90;;;;;;5032418;28;20049;-85
2023/03/24 03:37:33;;;;;;;16.65;3.30;;;10.50;99.90;;;;;;5053529;28;20049;-82
2023/03/24 03:40:44;;;;;;;14.30;3.30;;;10.40;99.90;;;;;;5049331;28;20049;-82
2023/03/24 03:43:32;;;;;;;23.67;2.80;;;10.40;99.90;;;;;;5051191;28;20182;-81
2023/03/24 03:46:18;;;;;;;15.13;3.72;;;10.30;99.90;;;;;;5053488;28;20143;-83
2023/03/24 03:49:06;;;;;;;12.55;3.17;;;10.20;99.90;;;;;;5040731;28;20056;-88
2023/03/24 03:51:54;;;;;;;17.80;3.03;;;10.10;99.90;;;;;;5055578;28;20056;-81
2023/03/24 03:54:41;;;;;;;14.63;2.95;;;10.10;99.90;;;;;;5049118;28;20045;-81
2023/03/24 03:57:27;;;;;;;13.98;4.35;;;10.00;99.90;;;;;;5049459;28;20045;-82
2023/03/24 04:00:18;;;;;;;16.80;2.83;;;9.90;99.90;;;;;;5049093;28;20065;-81
2023/03/24 04:03:13;;;;;;;17.92;2.75;;;10.00;99.90;;;;;;5056991;28;20098;-84
2023/03/24 04:06:12;;;;;;;23.00;4.95;;;9.90;99.90;;;;;;5070370;28;20048;-84
2023/03/24 04:09:08;;;;;;;20.08;3.90;;;9.90;99.90;;;;;;5070175;28;20048;-86
2023/03/24 04:11:57;;;;;;;18.00;3.08;;;9.80;99.90;;;;;;5070873;28;20045;-86
2023/03/24 04:15:33;;;;;;;11.40;2.45;;;9.70;99.90;;;;;;5069124;28;20110;-82
2023/03/24 04:18:42;;;;;;;12.00;2.90;;;9.70;99.90;;;;;;5045109;28;20539;-82
2023/03/24 04:22:08;;;;;;;13.85;2.92;;;9.50;99.90;;;;;;5068481;28;20397;-85
2023/03/24 04:25:19;;;;;;;11.57;2.27;;;9.50;99.90;;;;;;5049170;28;20129;-82
2023/03/24 04:28:20;;;;;;;15.13;2.42;;;9.40;99.90;;;;;;5071264;28;20052;-82
2023/03/24 04:31:22;;;;;;;22.92;3.33;;;9.40;99.90;;;;;;5060561;28;20056;-82
2023/03/24 04:34:19;;;;;;;16.55;3.10;;;9.30;99.90;;;;;;5068234;28;20110;-85
2023/03/24 04:37:13;;;;;;;22.33;5.57;;;9.30;99.90;;;;;;5069436;28;20056;-82
2023/03/24 04:40:04;;;;;;;17.05;3.05;;;9.20;99.90;;;;;;5069618;28;20048;-82
2023/03/24 04:42:53;;;;;;;17.52;2.20;;;9.20;99.90;;;;;;5067720;28;20500;-82
2023/03/24 04:45:40;;;;;;;17.40;2.75;;;9.20;99.90;;;;;;5070175;28;20057;-84
2023/03/24 04:48:26;;;;;;;17.50;4.57;;;9.10;99.90;;;;;;5072224;28;20080;-84
2023/03/24 04:51:14;;;;;;;13.82;3.03;;;9.10;99.90;;;;;;5069030;28;20049;-85
2023/03/24 04:54:01;;;;;;;8.40;2.08;;;9.00;99.90;;;;;;5072059;28;20044;-83
2023/03/24 04:56:55;;;;;;;24.55;3.03;;;9.00;99.90;;;;;;5057549;28;20053;-84
2023/03/24 04:59:42;;;;;;;14.13;2.75;;;9.00;99.90;;;;;;5053564;28;20059;-84
2023/03/24 05:02:28;;;;;;;21.55;3.65;;;8.90;99.90;;;;;;5044622;28;20059;-85
2023/03/24 05:05:14;;;;;;;17.83;3.15;;;8.90;99.90;;;;;;5058115;28;20147;-83
2023/03/24 05:08:01;;;;;;;18.70;4.47;;;8.90;99.90;;;;;;5045635;28;20147;-83
2023/03/24 05:10:47;;;;;;;14.68;3.97;;;8.90;99.90;;;;;;5072707;28;20053;-85
2023/03/24 05:13:33;;;;;;;23.75;3.17;;;8.90;99.90;;;;;;5073781;28;20044;-84
2023/03/24 05:16:20;;;;;;;15.85;3.00;;;8.80;99.90;;;;;;5056196;28;20052;-84
2023/03/24 05:19:06;;;;;;;20.80;2.95;;;8.80;99.90;;;;;;5070875;28;20510;-84
2023/03/24 05:21:53;;;;;;;21.42;5.07;;;8.80;99.90;;;;;;5071505;28;20465;-85
2023/03/24 05:24:39;;;;;;;19.13;3.78;;;8.80;99.90;;;;;;5070862;28;20523;-82
2023/03/24 05:27:25;;;;;;;20.33;4.38;;;8.80;99.90;;;;;;5039291;28;20088;-82
2023/03/24 05:30:12;;;;;;;18.13;4.20;;;8.80;99.90;;;;;;5071012;28;20052;-81
2023/03/24 05:32:58;;;;;;;24.42;3.72;;;8.80;99.90;;;;;;5057401;28;20053;-84
2023/03/24 05:35:45;;;;;;;25.20;4.05;;;8.80;99.90;;;;;;5073459;28;20238;-84
2023/03/24 05:38:31;;;;;;;19.35;5.35;;;8.80;99.90;;;;;;5054560;28;20149;-83
2023/03/24 05:41:17;;;;;;;13.18;3.30;;;8.90;99.90;;;;;;5071595;28;20055;-83
2023/03/24 05:44:03;;;;;;;17.08;4.03;;;8.90;99.90;;;;;;5070904;28;20571;-83
2023/03/24 05:46:49;;;;;;;20.50;4.05;;;8.90;99.90;;;;;;5054563;28;20141;-83
2023/03/24 05:49:35;;;;;;;16.55;4.03;;;8.90;99.90;;;;;;5041186;28;20476;-83
2023/03/24 05:52:21;;;;;;;21.85;4.55;;;8.90;99.90;;;;;;5070460;28;20055;-83
2023/03/24 05:55:08;;;;;;;18.85;4.10;;;9.00;99.90;;;;;;5028551;28;20491;-83
2023/03/24 05:57:54;;;;;;;19.75;3.40;;;9.00;99.90;;;;;;5071220;28;20508;-83
2023/03/24 06:00:41;;;;;;;17.42;2.63;;;9.00;99.90;;;;;;5072113;28;20186;-82
2023/03/24 06:03:32;;;;;;;20.92;3.20;;;9.10;99.90;;;;;;5053398;28;20095;-83
2023/03/24 06:06:18;;;;;;;17.52;3.33;;;9.10;99.90;;;;;;5070846;28;20063;-82
2023/03/24 06:09:05;;;;;;;18.95;3.35;;;9.10;99.90;;;;;;5071146;28;20044;-84
2023/03/24 06:11:51;;;;;;;14.88;3.22;;;9.10;99.90;;;;;;5055812;28;20041;-82
2023/03/24 06:14:37;;;;;;;19.63;3.53;;;9.20;99.90;;;;;;5057870;28;20138;-82
2023/03/24 06:17:24;;;;;;;16.55;4.32;;;9.20;99.90;;;;;;5066431;28;20136;-81
2023/03/24 06:20:14;;;;;;;21.50;4.38;;;9.30;99.90;;;;;;5071071;28;20412;-81
2023/03/24 06:23:01;;;;;;;18.23;4.47;;;9.30;99.90;;;;;;5070436;28;20040;-81
2023/03/24 06:25:49;;;;;;;21.77;5.07;;;9.30;99.90;;;;;;5072936;28;20049;-81
2023/03/24 06:28:38;;;;;;;19.67;3.30;;;9.30;99.90;;;;;;5070434;28;20063;-83
2023/03/24 06:31:26;;;;;;;18.13;2.95;;;9.30;99.90;;;;;;5070919;28;20060;-83
2023/03/24 06:34:12;;;;;;;22.52;3.50;;;9.30;99.90;;;;;;5071186;28;20054;-84
2023/03/24 06:36:58;;;;;;;23.88;3.95;;;9.30;99.90;;;;;;5069559;28;20053;-81
2023/03/24 06:39:46;;;;;;;17.60;3.20;;;9.30;99.90;;;;;;5071395;28;20048;-84
2023/03/24 06:42:32;;;;;;;22.13;3.50;;;9.30;99.90;;;;;;5070551;28;20500;-82
2023/03/24 06:45:18;;;;;;;15.80;3.60;;;9.40;99.90;;;;;;5072964;28;20053;-82
2023/03/24 06:48:04;;;;;;;16.27;3.75;;;9.40;99.90;;;;;;5072143;28;20813;-82
2023/03/24 06:50:54;;;;;;;16.50;3.40;;;9.40;99.90;;;;;;5056124;28;20110;-82
2023/03/24 06:53:42;;;;;;;11.65;2.90;;;9.40;99.90;;;;;;5069512;28;20041;-82
2023/03/24 06:56:29;;;;;;;21.15;3.75;;;9.50;99.90;;;;;;5069288;28;20394;-84
2023/03/24 06:59:16;;;;;;;19.70;3.28;;;9.50;99.90;;;;;;5070218;28;20638;-81
2023/03/24 07:02:02;;;;;;;26.20;5.05;;;9.50;99.90;;;;;;5070644;28;20052;-81
2023/03/24 07:04:49;;;;;;;19.75;3.42;;;9.50;99.90;;;;;;5070139;28;20048;-84
2023/03/24 07:07:35;;;;;;;16.30;3.15;;;9.60;99.90;;;;;;5072127;28;20048;-84
2023/03/24 07:10:21;;;;;;;12.63;3.42;;;9.60;99.90;;;;;;5069829;28;20059;-83
2023/03/24 07:13:08;;;;;;;14.90;3.42;;;9.60;99.90;;;;;;5069571;28;20063;-81
2023/03/24 07:15:54;;;;;;;15.35;3.45;;;9.60;99.90;;;;;;5051924;28;20067;-83
2023/03/24 07:18:40;;;;;;;27.23;3.17;;;9.60;99.90;;;;;;5071231;28;20050;-83
2023/03/24 07:21:27;;;;;;;18.77;3.30;;;9.60;99.90;;;;;;5054102;28;20059;-83
2023/03/24 07:24:13;;;;;;;22.15;4.97;;;9.70;99.90;;;;;;5070261;28;20044;-84
2023/03/24 07:26:59;;;;;;;18.65;3.42;;;9.60;99.90;;;;;;5068941;28;20563;-83
2023/03/24 07:29:45;;;;;;;26.08;3.65;;;9.60;99.90;;;;;;5055783;28;20088;-82
2023/03/24 07:32:33;;;;;;;22.73;3.65;;;9.70;99.90;;;;;;5069231;28;20048;-82
2023/03/24 07:35:19;;;;;;;26.95;5.18;;;9.70;99.90;;;;;;5069475;28;20044;-85
2023/03/24 07:38:09;;;;;;;19.67;3.70;;;9.70;99.90;;;;;;5062589;28;20056;-86
2023/03/24 07:40:57;;;;;;;16.92;3.70;;;9.80;99.90;;;;;;5037686;28;20193;-84
2023/03/24 07:43:43;;;;;;;24.92;4.03;;;9.80;99.90;;;;;;5069184;28;20494;-83
2023/03/24 07:46:29;;;;;;;28.85;5.00;;;9.80;99.90;;;;;;5068566;28;20056;-82
2023/03/24 07:49:16;;;;;;;22.13;3.97;;;9.80;99.90;;;;;;5070434;28;20063;-84
2023/03/24 07:52:05;;;;;;;27.63;6.38;;;9.80;99.90;;;;;;5056228;28;20044;-86
2023/03/24 07:54:51;;;;;;;30.58;6.00;;;9.90;99.90;;;;;;5070622;28;20040;-83
2023/03/24 07:57:50;;;;;;;20.65;4.03;;;9.90;99.90;;;;;;5071386;28;20055;-84
2023/03/24 08:00:37;;;;;;;34.05;4.53;;;9.90;99.90;;;;;;5071315;28;20053;-86
2023/03/24 08:03:26;;;;;;;21.33;3.80;;;10.00;99.90;;;;;;5053504;28;20063;-86
2023/03/24 08:06:12;;;;;;;23.35;4.68;;;10.00;99.90;;;;;;5071805;28;20059;-85
2023/03/24 08:08:58;;;;;;;22.10;4.93;;;10.00;99.90;;;;;;5070633;28;20145;-84
2023/03/24 08:11:44;;;;;;;26.33;4.78;;;10.00;99.90;;;;;;5056748;28;20095;-84
2023/03/24 08:14:31;;;;;;;16.42;4.00;;;10.00;99.90;;;;;;5070665;28;20048;-86
2023/03/24 08:17:17;;;;;;;34.25;4.55;;;10.10;99.90;;;;;;5070308;28;20105;-82
2023/03/24 08:20:10;;;;;;;30.55;5.70;;;10.10;99.90;;;;;;5068976;28;20401;-85
2023/03/24 08:22:57;;;;;;;19.05;4.85;;;10.20;99.90;;;;;;5072378;28;20063;-84
2023/03/24 08:25:43;;;;;;;27.98;4.43;;;10.30;99.90;;;;;;5071875;28;20518;-85
2023/03/24 08:28:29;;;;;;;28.60;4.43;;;10.40;99.90;;;;;;5072679;28;20056;-83
2023/03/24 08:31:15;;;;;;;30.52;5.68;;;10.40;99.90;;;;;;5071341;28;20049;-82
2023/03/24 08:34:01;;;;;;;23.30;4.25;;;10.40;99.90;;;;;;5070560;28;20045;-83
2023/03/24 08:36:47;;;;;;;23.38;4.60;;;10.30;99.90;;;;;;5072944;28;20049;-84
2023/03/24 08:39:34;;;;;;;23.30;4.30;;;10.40;99.90;;;;;;5073137;28;20466;-83
2023/03/24 08:42:20;;;;;;;22.83;4.43;;;10.40;99.90;;;;;;5072378;28;20057;-84
2023/03/24 08:45:08;;;;;;;22.52;4.45;;;10.40;99.90;;;;;;5073326;28;20095;-85
2023/03/24 08:47:57;;;;;;;29.67;5.00;;;10.50;99.90;;;;;;5072406;28;20053;-85
2023/03/24 08:50:43;;;;;;;21.45;3.92;;;10.50;99.90;;;;;;5072840;28;20106;-83
2023/03/24 08:53:29;;;;;;;15.85;2.88;;;10.40;99.90;;;;;;5072087;28;20516;-83
2023/03/24 08:56:15;;;;;;;29.35;4.28;;;10.40;99.90;;;;;;5073205;28;20157;-83
2023/03/24 08:59:03;;;;;;;20.65;4.13;;;10.50;99.90;;;;;;5075280;28;20059;-83
2023/03/24 09:01:49;;;;;;;21.83;4.18;;;10.50;99.90;;;;;;5058461;28;20063;-83
2023/03/24 09:04:36;;;;;;;26.75;5.50;;;10.60;99.90;;;;;;5075055;28;20052;-84
2023/03/24 09:07:22;;;;;;;23.10;4.18;;;10.60;99.90;;;;;;5072351;28;20576;-86
2023/03/24 09:10:09;;;;;;;23.80;4.43;;;10.70;99.90;;;;;;5072799;28;20180;-86
2023/03/24 09:12:55;;;;;;;28.20;4.85;;;10.80;99.90;;;;;;5074521;28;20082;-85
2023/03/24 09:15:56;;;;;;;27.40;4.03;;;10.70;99.90;;;;;;5073907;28;20113;-85
2023/03/24 09:18:42;;;;;;;21.33;5.47;;;10.80;99.90;;;;;;5073266;28;20112;-81
2023/03/24 09:21:28;;;;;;;23.33;4.97;;;11.10;99.90;;;;;;5072262;28;20091;-82
2023/03/24 09:24:15;;;;;;;16.90;5.15;;;11.10;99.90;;;;;;5055263;28;20147;-83
2023/03/24 09:27:01;;;;;;;21.48;3.10;;;10.90;99.90;;;;;;5071737;28;20504;-85
2023/03/24 09:29:52;;;;;;;20.98;4.65;;;10.80;99.90;;;;;;5073245;28;20132;-85
2023/03/24 09:32:39;;;;;;;31.30;4.13;;;11.10;99.90;;;;;;5039604;28;20049;-84
2023/03/24 09:35:26;;;;;;;26.88;4.03;;;11.20;99.90;;;;;;5054001;28;20060;-84
2023/03/24 09:38:12;;;;;;;16.90;3.47;;;11.30;99.90;;;;;;5053570;28;20664;-84
2023/03/24 09:41:01;;;;;;;26.15;3.38;;;11.20;99.90;;;;;;5071644;28;20052;-84
2023/03/24 09:44:10;;;;;;;16.23;3.65;;;11.30;99.90;;;;;;5073369;28;20729;-84
2023/03/24 09:47:19;;;;;;;22.48;4.03;;;11.20;99.90;;;;;;5072631;28;20045;-83
2023/03/24 09:50:21;;;;;;;23.45;5.30;;;11.20;99.90;;;;;;5071539;28;20059;-83
2023/03/24 09:53:30;;;;;;;15.75;3.80;;;11.40;99.90;;;;;;5073682;28;20048;-81
2023/03/24 09:56:18;;;;;;;20.23;5.25;;;11.50;99.90;;;;;;5057000;28;20093;-83
2023/03/24 09:59:17;;;;;;;17.10;3.28;;;11.50;99.90;;;;;;5070776;28;20530;-84
2023/03/24 10:02:20;;;;;;;22.83;4.65;;;11.80;99.90;;;;;;5070978;28;20067;-82
2023/03/24 10:05:16;;;;;;;15.48;3.17;;;12.00;99.90;;;;;;5056570;28;20055;-84
2023/03/24 10:08:26;;;;;;;24.40;3.78;;;12.20;99.90;;;;;;5072368;28;20090;-84
2023/03/24 10:11:28;;;;;;;13.50;3.13;;;12.60;99.90;;;;;;5070098;28;20114;-86
2023/03/24 10:14:48;;;;;;;16.13;3.15;;;12.80;99.90;;;;;;5070680;28;20382;-86
2023/03/24 10:17:58;;;;;;;20.40;3.40;;;12.60;99.90;;;;;;5071071;28;20106;-87
2023/03/24 10:20:58;;;;;;;21.77;4.15;;;12.40;99.90;;;;;;5071739;28;20049;-84
2023/03/24 10:23:49;;;;;;;20.95;3.63;;;12.40;99.90;;;;;;5073309;28;20056;-86
2023/03/24 10:26:59;;;;;;;22.10;4.20;;;12.50;99.90;;;;;;5070877;28;20053;-83
2023/03/24 10:29:48;;;;;;;21.23;3.78;;;12.70;99.90;;;;;;5040117;28;20076;-86
2023/03/24 10:32:35;;;;;;;18.02;4.40;;;12.80;99.90;;;;;;5073324;28;20114;-83
2023/03/24 10:35:32;;;;;;;15.80;3.40;;;12.90;99.90;;;;;;5070788;28;20082;-83
2023/03/24 10:38:20;;;;;;;14.60;2.75;;;13.10;99.90;;;;;;5052491;28;20056;-85
2023/03/24 10:41:12;;;;;;;15.48;2.90;;;13.00;99.90;;;;;;5062591;28;20048;-85
2023/03/24 10:44:00;;;;;;;16.88;2.95;;;13.10;99.90;;;;;;5071073;28;20076;-84
2023/03/24 10:46:51;;;;;;;18.92;3.42;;;13.00;99.90;;;;;;5069573;28;20725;-83
2023/03/24 10:49:37;;;;;;;18.60;3.45;;;12.90;99.90;;;;;;5070644;28;20053;-85
2023/03/24 10:52:24;;;;;;;18.55;3.33;;;12.90;99.90;;;;;;5069990;28;20472;-86
2023/03/24 10:55:17;;;;;;;17.35;3.25;;;13.10;99.90;;;;;;5071077;28;20052;-84
2023/03/24 10:58:24;;;;;;;11.73;3.03;;;13.10;99.90;;;;;;5071490;28;20049;-84
2023/03/24 11:01:27;;;;;;;14.85;3.33;;;13.10;99.90;;;;;;5070061;28;20119;-86
2023/03/24 11:04:18;;;;;;;16.10;3.63;;;13.10;99.90;;;;;;5071807;28;20044;-83
2023/03/24 11:07:22;;;;;;;14.97;3.50;;;13.30;99.90;;;;;;5072867;28;20048;-87
2023/03/24 11:10:08;;;;;;;18.38;3.90;;;13.20;99.90;;;;;;5069563;28;20291;-84
2023/03/24 11:13:01;;;;;;;15.32;3.40;;;13.40;99.90;;;;;;5074026;28;20488;-85
2023/03/24 11:16:14;;;;;;;20.90;3.38;;;13.30;99.90;;;;;;5074965;28;20048;-82
2023/03/24 11:19:06;;;;;;;20.17;4.10;;;13.30;99.90;;;;;;5070313;28;20041;-83
2023/03/24 11:22:01;;;;;;;12.10;2.50;;;13.30;99.90;;;;;;5070269;28;20052;-87
2023/03/24 11:24:54;;;;;;;16.73;3.75;;;13.20;99.90;;;;;;5070973;28;20056;-83
2023/03/24 11:27:42;;;;;;;16.83;4.07;;;13.30;99.90;;;;;;5052106;28;20095;-82
2023/03/24 11:30:50;;;;;;;15.70;3.17;;;13.80;99.90;;;;;;5054677;28;20088;-82
2023/03/24 11:33:55;;;;;;;14.10;3.22;;;13.70;99.90;;;;;;5067991;28;20045;-82
2023/03/24 11:36:43;;;;;;;14.15;3.05;;;13.90;99.90;;;;;;5051501;28;20048;-84
2023/03/24 11:39:31;;;;;;;15.75;2.88;;;14.20;99.90;;;;;;5070080;28;20056;-82
2023/03/24 11:42:18;;;;;;;16.55;3.20;;;14.00;99.90;;;;;;5070397;28;20127;-82
2023/03/24 11:45:38;;;;;;;16.25;4.78;;;14.20;99.90;;;;;;5072920;28;20049;-83
2023/03/24 11:48:49;;;;;;;12.70;2.45;;;14.70;99.90;;;;;;5041013;28;20149;-82
2023/03/24 11:51:40;;;;;;;14.05;2.78;;;14.70;99.90;;;;;;5040855;28;20052;-83
2023/03/24 11:54:34;;;;;;;22.38;3.50;;;14.50;99.90;;;;;;5071214;28;20087;-83
2023/03/24 11:57:48;;;;;;;13.38;2.60;;;14.80;99.90;;;;;;5069261;28;20048;-85
2023/03/24 12:00:40;;;;;;;16.48;3.35;;;14.80;99.90;;;;;;5039937;28;20558;-82
2023/03/24 12:03:33;;;;;;;15.05;3.15;;;15.10;99.30;;;;;;5068021;28;20195;-84
2023/03/24 12:06:52;;;;;;;14.00;3.30;;;15.40;99.20;;;;;;5070296;28;20048;-83
2023/03/24 12:09:41;;;;;;;13.70;3.38;;;15.80;99.10;;;;;;5069581;28;20060;-87
2023/03/24 12:12:51;;;;;;;23.20;3.00;;;15.80;98.20;;;;;;5068766;28;20049;-84
2023/03/24 12:15:50;;;;;;;14.85;2.42;;;15.50;98.20;;;;;;5069625;28;20150;-84
2023/03/24 12:19:03;;;;;;;13.07;3.15;;;14.80;98.50;;;;;;5069641;28;20493;-85
2023/03/24 12:21:55;;;;;;;13.32;2.72;;;14.10;98.20;;;;;;5071005;28;20045;-85
2023/03/24 12:24:59;;;;;;;15.00;2.60;;;14.60;99.90;;;;;;5070913;28;20045;-82
2023/03/24 12:28:03;;;;;;;9.80;2.22;;;14.80;99.50;;;;;;5068441;28;20055;-84
2023/03/24 12:31:04;;;;;;;14.50;2.75;;;14.90;99.40;;;;;;5069677;28;20056;-83
2023/03/24 12:34:06;;;;;;;16.38;4.15;;;15.20;99.20;;;;;;5068997;28;20051;-83
2023/03/24 12:37:05;;;;;;;13.73;3.28;;;15.70;97.40;;;;;;5069338;28;20048;-84
2023/03/24 12:40:00;;;;;;;10.75;3.30;;;15.80;96.60;;;;;;5069027;28;20044;-85
2023/03/24 12:42:47;;;;;;;;;;;16.00;97.00;;;;;;5056557;28;20139;-84
2023/03/24 12:45:43;;;;;;;14.25;2.20;;;16.80;96.00;;;;;;5071315;28;19975;-85
2023/03/24 12:49:04;;;;;;;18.50;2.95;;;17.10;94.60;;;;;;5069049;28;20076;-83
2023/03/24 12:52:06;;;;;;;16.77;2.78;;;17.30;93.90;;;;;;4989118;28;20577;-83
2023/03/24 12:55:03;;;;;;;13.02;2.72;;;17.60;94.30;;;;;;5051293;28;20056;-83
2023/03/24 12:57:57;;;;;;;11.55;2.30;;;17.50;93.90;;;;;;5067635;28;20051;-84
2023/03/24 13:00:52;;;;;;;12.80;2.33;;;17.70;93.00;;;;;;5068359;28;20131;-83
2023/03/24 13:03:46;;;;;;;10.00;2.22;;;18.30;92.00;;;;;;5071174;28;20052;-87
2023/03/24 13:06:48;;;;;;;9.40;1.88;;;18.10;91.20;;;;;;5049418;28;20052;-83
2023/03/24 13:09:52;;;;;;;8.25;2.40;;;17.70;90.60;;;;;;5053348;28;20041;-85
2023/03/24 13:12:43;;;;;;;17.63;2.83;;;17.90;89.50;;;;;;5052734;28;20052;-85
2023/03/24 13:15:54;;;;;;;14.60;2.45;;;18.50;90.10;;;;;;5055627;28;20045;-85
2023/03/24 13:18:54;;;;;;;12.10;2.42;;;17.70;90.00;;;;;;5068553;28;20098;-85
2023/03/24 13:21:42;;;;;;;11.73;3.28;;;17.90;90.50;;;;;;5071469;28;20044;-87
2023/03/24 13:24:28;;;;;;;11.93;2.67;;;17.90;90.20;;;;;;5054611;28;20142;-84
2023/03/24 13:27:31;;;;;;;10.40;1.95;;;18.10;89.00;;;;;;5061006;28;20615;-84
2023/03/24 13:30:38;;;;;;;10.05;1.98;;;18.10;89.20;;;;;;5073590;28;20112;-85
2023/03/24 13:33:36;;;;;;;9.80;1.88;;;18.30;88.00;;;;;;5072923;28;20048;-84
2023/03/24 13:36:45;;;;;;;15.85;2.60;;;17.60;88.20;;;;;;5060380;28;20408;-84
2023/03/24 13:39:35;;;;;;;11.85;2.70;;;17.70;90.70;;;;;;5058538;28;20048;-87
2023/03/24 13:42:41;;;;;;;17.80;2.65;;;17.40;90.70;;;;;;5072763;28;20048;-85
2023/03/24 13:45:41;;;;;;;12.75;2.25;;;17.70;90.10;;;;;;5055041;28;20052;-82
2023/03/24 13:48:49;;;;;;;12.90;2.45;;;17.60;90.50;;;;;;5071953;28;20114;-87
2023/03/24 13:51:39;;;;;;;11.68;2.30;;;17.30;91.70;;;;;;5072831;28;20483;-85
2023/03/24 13:54:26;;;;;;;11.75;2.60;;;17.40;91.70;;;;;;5072410;28;20048;-86
2023/03/24 13:57:22;;;;;;;18.25;3.10;;;17.70;90.50;;;;;;5059270;28;20040;-83
2023/03/24 14:00:16;;;;;;;;;;;17.60;91.60;;;;;;5062243;28;20097;-83
2023/03/24 14:03:13;;;;;;;16.08;3.03;;;17.30;92.10;;;;;;5076987;28;19968;-84
2023/03/24 14:06:03;;;;;;;22.13;4.25;;;17.20;93.10;;;;;;5078668;28;20051;-85
2023/03/24 14:08:52;;;;;;;15.05;3.38;;;16.40;93.10;;;;;;5076965;28;20135;-81
2023/03/24 14:11:42;;;;;;;19.17;3.63;;;16.60;94.20;;;;;;5054457;28;20469;-86
2023/03/24 14:14:29;;;;;;;12.93;2.65;;;16.00;95.10;;;;;;5070564;28;20044;-88
2023/03/24 14:17:16;;;;;;;18.75;3.00;;;16.20;96.10;;;;;;5080854;28;20049;-87
2023/03/24 14:20:09;;;;;;;14.50;2.83;;;15.90;96.40;;;;;;5073999;28;20056;-84
2023/03/24 14:22:55;;;;;;;21.50;3.00;;;16.30;97.50;;;;;;5072309;28;20061;-83
2023/03/24 14:25:53;;;;;;;13.90;3.63;;;15.60;97.00;;;;;;5079240;28;20040;-84
2023/03/24 14:28:47;;;;;;;20.88;4.43;;;16.40;97.30;;;;;;5074765;28;20079;-87
2023/03/24 14:31:34;;;;;;;17.00;2.85;;;17.20;95.00;;;;;;5072216;28;20051;-85
2023/03/24 14:34:24;;;;;;;11.77;2.53;;;17.90;95.00;;;;;;5077310;28;20053;-87
2023/03/24 14:37:14;;;;;;;16.23;3.45;;;17.80;94.10;;;;;;5077627;28;20080;-85
2023/03/24 14:40:00;;;;;;;14.68;3.20;;;18.10;93.80;;;;;;5073599;28;20059;-84
2023/03/24 14:42:46;;;;;;;15.77;3.35;;;18.30;93.80;;;;;;5075708;28;20063;-85
2023/03/24 14:45:51;;;;;;;22.90;3.55;;;17.10;94.30;;;;;;5076401;28;20045;-87
2023/03/24 14:48:55;;;;;;;16.00;3.95;;;16.20;96.60;;;;;;5074377;28;20105;-86
2023/03/24 14:51:56;;;;;;;12.32;3.03;;;16.90;96.10;;;;;;5039067;28;20068;-85
2023/03/24 14:54:52;;;;;;;15.50;2.72;;;17.10;96.00;;;;;;5070342;28;20055;-83